createdAt,value
2019-04-25T00:01:47.966Z,64.23
2019-04-25T00:04:18.724Z,64.01
2019-04-25T00:06:47.918Z,63.75
2019-04-25T00:09:18.764Z,63.47
2019-04-25T00:11:48.909Z,63.64
2019-04-25T00:14:18.160Z,63.78
2019-04-25T00:16:47.672Z,63.68
2019-04-25T00:19:16.954Z,63.89
2019-04-25T00:22:11.783Z,63.58
2019-04-25T00:24:58.792Z,63.65
2019-04-25T00:27:27.967Z,63.64
2019-04-25T00:29:57.676Z,63.80
2019-04-25T00:32:26.836Z,63.88
2019-04-25T00:34:55.905Z,63.71
2019-04-25T00:37:25.028Z,63.63
2019-04-25T00:39:54.141Z,63.44
2019-04-25T00:42:23.361Z,63.52
2019-04-25T00:44:52.561Z,63.39
2019-04-25T00:47:21.712Z,63.14
2019-04-25T00:49:52.387Z,63.22
2019-04-25T00:52:22.778Z,63.56
2019-04-25T00:54:53.435Z,63.91
2019-04-25T00:57:22.762Z,64.27
2019-04-25T01:00:06.151Z,64.11
2019-04-25T01:02:39.435Z,63.92
2019-04-25T01:05:09.233Z,63.82
2019-04-25T01:07:38.391Z,63.70
2019-04-25T01:10:27.979Z,63.58
2019-04-25T01:12:57.200Z,63.64
2019-04-25T01:15:26.991Z,63.67
2019-04-25T01:17:56.259Z,63.59
2019-04-25T01:20:25.384Z,63.62
2019-04-25T01:22:56.980Z,63.17
2019-04-25T01:25:25.767Z,63.35
2019-04-25T01:27:54.983Z,63.47
2019-04-25T01:30:25.749Z,63.31
2019-04-25T01:32:55.413Z,63.20
2019-04-25T01:35:33.551Z,63.47
2019-04-25T01:38:10.881Z,63.43
2019-04-25T01:40:53.079Z,63.22
2019-04-25T01:43:40.275Z,62.87
2019-04-25T01:46:11.119Z,62.77
2019-04-25T01:48:40.229Z,62.73
2019-04-25T01:51:09.365Z,63.35
2019-04-25T01:53:38.523Z,67.13
2019-04-25T01:56:07.968Z,67.49
2019-04-25T01:58:37.220Z,68.33
2019-04-25T02:01:06.473Z,68.70
2019-04-25T02:03:35.709Z,68.97
2019-04-25T02:06:05.246Z,69.02
2019-04-25T02:08:34.521Z,68.33
2019-04-25T02:11:14.321Z,68.01
2019-04-25T02:13:43.786Z,67.41
2019-04-25T02:19:04.045Z,67.10
2019-04-25T02:21:33.534Z,66.84
2019-04-25T02:24:04.348Z,66.50
2019-04-25T02:26:34.064Z,66.32
2019-04-25T02:29:04.676Z,65.98
2019-04-25T02:31:34.767Z,65.78
2019-04-25T02:34:08.136Z,65.72
2019-04-25T02:36:35.260Z,65.55
2019-04-25T02:39:09.150Z,65.65
2019-04-25T02:41:38.300Z,65.82
2019-04-25T02:44:09.894Z,66.01
2019-04-25T02:46:51.526Z,66.10
2019-04-25T02:49:48.517Z,66.28
2019-04-25T02:52:24.714Z,66.49
2019-04-25T02:54:55.690Z,66.56
2019-04-25T02:57:25.142Z,67.01
2019-04-25T02:59:55.730Z,66.91
2019-04-25T03:02:25.377Z,66.85
2019-04-25T03:04:54.815Z,66.55
2019-04-25T03:07:24.759Z,66.81
2019-04-25T03:09:54.758Z,66.96
2019-04-25T03:12:32.453Z,66.95
2019-04-25T03:14:55.168Z,67.00
2019-04-25T03:17:24.813Z,66.93
2019-04-25T03:20:19.069Z,66.93
2019-04-25T03:22:48.296Z,66.98
2019-04-25T03:25:17.862Z,67.11
2019-04-25T03:27:46.968Z,67.05
2019-04-25T03:30:17.990Z,66.89
2019-04-25T03:32:47.045Z,66.91
2019-04-25T03:35:16.148Z,67.10
2019-04-25T03:37:45.284Z,67.11
2019-04-25T03:40:14.410Z,67.52
2019-04-25T03:42:43.964Z,67.86
2019-04-25T03:45:13.977Z,67.81
2019-04-25T03:47:44.056Z,67.89
2019-04-25T03:50:13.948Z,68.07
2019-04-25T03:52:43.671Z,68.06
2019-04-25T03:55:14.439Z,68.13
2019-04-25T03:57:44.366Z,68.50
2019-04-25T04:00:14.621Z,68.77
2019-04-25T04:02:44.390Z,68.65
2019-04-25T04:05:14.818Z,68.36
2019-04-25T04:07:44.144Z,68.20
2019-04-25T04:10:15.101Z,68.01
2019-04-25T04:12:44.391Z,67.81
2019-04-25T04:15:14.885Z,67.95
2019-04-25T04:17:49.808Z,67.91
2019-04-25T04:20:40.983Z,67.81
2019-04-25T04:23:21.020Z,67.74
2019-04-25T04:25:50.232Z,67.82
2019-04-25T04:28:19.355Z,67.97
2019-04-25T04:30:48.470Z,68.21
2019-04-25T04:33:29.557Z,67.94
2019-04-25T04:35:48.502Z,68.14
2019-04-25T04:38:18.120Z,68.38
2019-04-25T04:40:47.207Z,68.47
2019-04-25T04:43:16.556Z,68.25
2019-04-25T04:45:46.498Z,68.38
2019-04-25T04:48:16.662Z,68.61
2019-04-25T04:50:45.887Z,68.69
2019-04-25T04:53:16.020Z,68.46
2019-04-25T04:55:45.414Z,68.86
2019-04-25T04:58:15.057Z,68.44
2019-04-25T05:00:45.294Z,68.47
2019-04-25T05:03:27.716Z,68.69
2019-04-25T05:08:47.060Z,68.98
2019-04-25T05:11:17.043Z,67.67
2019-04-25T05:13:47.093Z,67.41
2019-04-25T05:16:17.732Z,67.33
2019-04-25T05:18:46.876Z,67.35
2019-04-25T05:21:17.060Z,67.15
2019-04-25T05:23:46.276Z,66.59
2019-04-25T05:26:16.314Z,67.39
2019-04-25T05:28:46.175Z,66.87
2019-04-25T05:31:26.742Z,66.78
2019-04-25T05:33:55.893Z,67.28
2019-04-25T05:36:28.975Z,66.79
2019-04-25T05:38:58.190Z,65.72
2019-04-25T05:41:36.262Z,66.35
2019-04-25T05:44:05.547Z,65.06
2019-04-25T05:46:34.669Z,65.57
2019-04-25T05:49:05.100Z,65.92
2019-04-25T05:51:34.472Z,66.40
2019-04-25T05:54:04.153Z,64.94
2019-04-25T05:56:33.759Z,65.31
2019-04-25T05:59:03.639Z,64.26
2019-04-25T06:01:35.814Z,64.02
2019-04-25T06:04:05.829Z,63.63
2019-04-25T06:06:36.775Z,63.08
2019-04-25T06:09:38.247Z,62.96
2019-04-25T06:12:41.682Z,63.32
2019-04-25T06:15:11.379Z,62.78
2019-04-25T06:18:00.025Z,62.60
2019-04-25T06:20:34.318Z,62.48
2019-04-25T06:23:18.965Z,61.89
2019-04-25T06:25:48.036Z,61.35
2019-04-25T06:28:19.435Z,60.30
2019-04-25T06:30:49.368Z,59.46
2019-04-25T06:33:18.630Z,60.22
2019-04-25T06:35:47.717Z,60.76
2019-04-25T06:38:16.853Z,59.75
2019-04-25T06:40:46.175Z,59.93
2019-04-25T06:43:15.341Z,59.57
2019-04-25T06:46:02.025Z,58.70
2019-04-25T06:48:45.559Z,59.43
2019-04-25T06:51:14.747Z,58.75
2019-04-25T06:53:47.151Z,59.59
2019-04-25T06:56:16.273Z,59.73
2019-04-25T06:58:45.413Z,58.56
2019-04-25T07:01:14.554Z,56.89
2019-04-25T07:03:44.265Z,56.67
2019-04-25T07:06:14.805Z,56.53
2019-04-25T07:08:44.744Z,56.26
2019-04-25T07:11:14.416Z,56.33
2019-04-25T07:13:43.934Z,56.40
2019-04-25T07:16:13.462Z,55.63
2019-04-25T07:18:43.626Z,54.56
2019-04-25T07:21:14.198Z,53.87
2019-04-25T07:23:46.152Z,53.70
2019-04-25T07:26:24.120Z,51.71
2019-04-25T07:29:13.446Z,50.07
2019-04-25T07:31:50.688Z,45.52
2019-04-25T07:36:49.029Z,32.98
2019-04-25T07:39:18.143Z,29.52
2019-04-25T07:41:47.276Z,28.14
2019-04-25T07:44:16.393Z,28.09
2019-04-25T07:46:45.525Z,25.96
2019-04-25T07:49:14.666Z,25.02
2019-04-25T07:51:45.419Z,23.29
2019-04-25T07:54:14.619Z,23.64
2019-04-25T07:56:43.867Z,24.97
2019-04-25T07:59:13.866Z,23.89
2019-04-25T08:01:43.679Z,24.48
2019-04-25T08:04:13.647Z,24.34
2019-04-25T08:06:44.528Z,24.29
2019-04-25T08:09:15.446Z,24.97
2019-04-25T08:11:44.586Z,25.10
2019-04-25T08:14:25.463Z,25.43
2019-04-25T08:16:57.022Z,26.17
2019-04-25T08:19:26.341Z,28.74
2019-04-25T08:21:56.952Z,31.54
2019-04-25T08:24:27.118Z,33.31
2019-04-25T08:26:56.934Z,32.73
2019-04-25T08:29:26.448Z,32.79
2019-04-25T08:31:55.657Z,30.94
2019-04-25T08:34:24.763Z,31.97
2019-04-25T08:36:54.399Z,31.29
2019-04-25T08:39:24.183Z,30.90
2019-04-25T08:41:54.691Z,31.19
2019-04-25T08:44:24.221Z,30.77
2019-04-25T08:46:54.015Z,31.43
2019-04-25T08:49:38.274Z,31.73
2019-04-25T08:52:07.738Z,31.90
2019-04-25T08:55:14.314Z,31.03
2019-04-25T08:57:58.626Z,32.72
2019-04-25T09:00:44.835Z,32.18
2019-04-25T09:03:16.786Z,33.26
2019-04-25T09:05:47.913Z,35.09
2019-04-25T09:08:17.010Z,34.78
2019-04-25T09:10:46.154Z,35.83
2019-04-25T09:13:15.296Z,36.55
2019-04-25T09:15:45.740Z,35.18
2019-04-25T09:18:14.918Z,35.62
2019-04-25T09:20:46.648Z,35.45
2019-04-25T09:23:14.896Z,36.29
2019-04-25T09:25:45.808Z,36.04
2019-04-25T09:28:14.879Z,37.19
2019-04-25T09:30:44.842Z,35.82
2019-04-25T09:33:15.063Z,37.02
2019-04-25T09:35:45.901Z,37.14
2019-04-25T09:38:14.998Z,37.39
2019-04-25T09:40:45.160Z,36.15
2019-04-25T09:43:14.833Z,36.65
2019-04-25T09:45:50.454Z,36.79
2019-04-25T09:48:42.356Z,36.76
2019-04-25T09:51:25.263Z,35.99
2019-04-25T09:54:00.673Z,36.04
2019-04-25T09:56:34.397Z,34.49
2019-04-25T09:59:26.494Z,34.03
2019-04-25T10:01:48.276Z,34.22
2019-04-25T10:04:17.366Z,34.24
2019-04-25T10:06:47.578Z,35.70
2019-04-25T10:09:18.273Z,35.48
2019-04-25T10:11:47.440Z,34.99
2019-04-25T10:14:41.929Z,34.94
2019-04-25T10:17:11.049Z,35.39
2019-04-25T10:19:41.139Z,34.86
2019-04-25T10:22:10.263Z,33.66
2019-04-25T10:24:39.720Z,33.30
2019-04-25T10:27:08.882Z,33.13
2019-04-25T10:29:44.487Z,32.74
2019-04-25T10:32:11.281Z,32.09
2019-04-25T10:34:41.139Z,32.65
2019-04-25T10:37:10.659Z,32.88
2019-04-25T10:39:40.211Z,31.53
2019-04-25T10:42:09.402Z,31.73
2019-04-25T10:44:39.244Z,30.42
2019-04-25T10:47:09.285Z,30.79
2019-04-25T10:49:39.829Z,29.41
2019-04-25T10:52:09.610Z,30.24
2019-04-25T10:54:39.697Z,31.16
2019-04-25T10:57:09.047Z,30.08
2019-04-25T10:59:54.274Z,29.62
2019-04-25T11:02:15.085Z,29.12
2019-04-25T11:04:54.624Z,29.36
2019-04-25T11:07:23.707Z,29.85
2019-04-25T11:09:53.974Z,30.50
2019-04-25T11:12:23.733Z,30.87
2019-04-25T11:14:53.687Z,30.13
2019-04-25T11:17:24.312Z,30.12
2019-04-25T11:19:54.312Z,30.46
2019-04-25T11:22:24.492Z,30.28
2019-04-25T11:24:53.636Z,31.08
2019-04-25T11:27:23.982Z,31.39
2019-04-25T11:29:54.842Z,30.02
2019-04-25T11:32:27.213Z,30.68
2019-04-25T11:34:57.337Z,30.79
2019-04-25T11:37:28.266Z,30.71
2019-04-25T11:40:09.574Z,29.92
2019-04-25T11:42:38.881Z,29.32
2019-04-25T11:45:08.626Z,29.50
2019-04-25T11:47:39.416Z,30.06
2019-04-25T11:50:09.384Z,29.58
2019-04-25T11:52:38.518Z,29.85
2019-04-25T11:55:08.428Z,29.15
2019-04-25T11:57:37.842Z,29.42
2019-04-25T12:00:07.076Z,30.16
2019-04-25T12:02:36.201Z,28.93
2019-04-25T12:05:05.572Z,29.29
2019-04-25T12:07:34.713Z,29.67
2019-04-25T12:10:07.348Z,30.64
2019-04-25T12:12:37.324Z,29.77
2019-04-25T12:15:06.676Z,29.14
2019-04-25T12:17:35.822Z,30.06
2019-04-25T12:20:05.098Z,29.82
2019-04-25T12:22:34.412Z,30.28
2019-04-25T12:25:04.678Z,30.32
2019-04-25T12:27:33.831Z,29.87
2019-04-25T12:30:05.132Z,30.22
2019-04-25T12:32:35.246Z,29.48
2019-04-25T12:35:06.186Z,28.43
2019-04-25T12:37:35.525Z,27.91
2019-04-25T12:40:06.329Z,28.11
2019-04-25T12:42:35.442Z,28.97
2019-04-25T12:45:20.791Z,28.35
2019-04-25T12:47:50.766Z,28.12
2019-04-25T12:50:20.080Z,26.93
2019-04-25T12:52:49.213Z,28.03
2019-04-25T12:55:18.772Z,27.62
2019-04-25T12:57:48.219Z,28.12
2019-04-25T13:00:22.105Z,28.27
2019-04-25T13:02:51.670Z,28.67
2019-04-25T13:05:21.777Z,28.03
2019-04-25T13:07:52.309Z,28.71
2019-04-25T13:10:23.608Z,28.30
2019-04-25T13:12:55.292Z,28.25
2019-04-25T13:15:25.766Z,28.67
2019-04-25T13:17:54.718Z,28.65
2019-04-25T13:20:23.882Z,28.45
2019-04-25T13:22:53.345Z,28.98
2019-04-25T13:25:24.255Z,28.23
2019-04-25T13:28:15.531Z,28.71
2019-04-25T13:31:15.797Z,28.47
2019-04-25T13:34:07.563Z,28.01
2019-04-25T13:36:36.814Z,28.83
2019-04-25T13:39:10.347Z,29.01
2019-04-25T13:41:39.471Z,28.19
2019-04-25T13:44:09.263Z,28.68
2019-04-25T13:46:38.599Z,29.30
2019-04-25T13:49:09.291Z,29.13
2019-04-25T13:51:38.591Z,27.52
2019-04-25T13:54:07.731Z,27.94
2019-04-25T13:56:40.447Z,28.12
2019-04-25T13:59:07.807Z,28.12
2019-04-25T14:01:37.130Z,29.14
2019-04-25T14:04:06.641Z,27.24
2019-04-25T14:06:35.955Z,27.84
2019-04-25T14:09:09.211Z,27.62
2019-04-25T14:11:38.538Z,28.02
2019-04-25T14:14:07.679Z,28.84
2019-04-25T14:16:59.369Z,28.07
2019-04-25T14:19:48.129Z,27.74
2019-04-25T14:22:17.277Z,26.75
2019-04-25T14:24:46.457Z,26.47
2019-04-25T14:27:17.215Z,26.24
2019-04-25T14:29:46.391Z,26.76
2019-04-25T14:32:16.252Z,28.23
2019-04-25T14:34:45.408Z,27.34
2019-04-25T14:37:14.529Z,27.16
2019-04-25T14:39:43.674Z,26.83
2019-04-25T14:42:12.805Z,27.43
2019-04-25T14:44:41.964Z,28.33
2019-04-25T14:47:11.154Z,28.80
2019-04-25T14:49:40.281Z,28.77
2019-04-25T14:52:09.411Z,30.37
2019-04-25T14:54:54.067Z,30.40
2019-04-25T14:57:26.170Z,30.50
2019-04-25T14:59:58.082Z,30.94
2019-04-25T15:02:29.971Z,30.58
2019-04-25T15:04:59.222Z,30.09
2019-04-25T15:07:28.369Z,29.34
2019-04-25T15:09:57.520Z,28.65
2019-04-25T15:12:26.914Z,28.69
2019-04-25T15:14:56.051Z,29.12
2019-04-25T15:17:26.380Z,30.22
2019-04-25T15:19:55.586Z,30.13
2019-04-25T15:22:25.582Z,30.13
2019-04-25T15:24:54.846Z,31.50
2019-04-25T15:27:25.094Z,30.40
2019-04-25T15:29:54.404Z,30.39
2019-04-25T15:32:27.501Z,30.51
2019-04-25T15:34:58.464Z,30.05
2019-04-25T15:37:33.184Z,30.51
2019-04-25T15:40:10.344Z,31.39
2019-04-25T15:43:04.652Z,30.04
2019-04-25T15:45:51.406Z,29.91
2019-04-25T15:48:20.594Z,30.37
2019-04-25T15:50:49.773Z,30.10
2019-04-25T15:53:18.894Z,29.95
2019-04-25T15:55:48.246Z,30.21
2019-04-25T15:58:17.346Z,29.99
2019-04-25T16:00:47.372Z,30.86
2019-04-25T16:03:16.582Z,30.69
2019-04-25T16:05:45.716Z,30.61
2019-04-25T16:08:14.973Z,30.97
2019-04-25T16:10:44.196Z,31.45
2019-04-25T16:13:13.586Z,30.30
2019-04-25T16:15:42.722Z,30.35
2019-04-25T16:18:11.883Z,30.38
2019-04-25T16:20:41.026Z,29.99
2019-04-25T16:23:10.162Z,31.08
2019-04-25T16:25:39.293Z,30.49
2019-04-25T16:28:08.392Z,30.82
2019-04-25T16:30:38.619Z,29.98
2019-04-25T16:33:08.125Z,29.87
2019-04-25T16:35:37.856Z,30.31
2019-04-25T16:38:07.291Z,30.96
2019-04-25T16:40:36.464Z,30.73
2019-04-25T16:43:08.083Z,30.90
2019-04-25T16:45:38.906Z,30.31
2019-04-25T16:48:08.026Z,30.45
2019-04-25T16:50:37.291Z,30.94
2019-04-25T16:53:06.507Z,30.89
2019-04-25T16:55:36.627Z,30.70
2019-04-25T16:58:06.315Z,30.82
2019-04-25T17:01:03.625Z,31.38
2019-04-25T17:03:35.321Z,30.83
2019-04-25T17:06:05.327Z,30.83
2019-04-25T17:08:35.565Z,30.55
2019-04-25T17:11:04.882Z,31.02
2019-04-25T17:13:35.952Z,30.81
2019-04-25T17:16:17.141Z,30.60
2019-04-25T17:18:54.014Z,30.29
2019-04-25T17:21:23.312Z,30.53
2019-04-25T17:23:52.446Z,30.44
2019-04-25T17:26:21.647Z,30.82
2019-04-25T17:28:52.570Z,31.00
2019-04-25T17:31:43.770Z,31.96
2019-04-25T17:34:30.778Z,33.12
2019-04-25T17:37:17.315Z,33.54
2019-04-25T17:39:50.153Z,33.92
2019-04-25T17:42:19.293Z,33.79
2019-04-25T17:44:48.478Z,34.08
2019-04-25T17:47:17.585Z,34.72
2019-04-25T17:49:46.709Z,34.93
2019-04-25T17:52:15.859Z,35.00
2019-04-25T17:54:45.011Z,35.08
2019-04-25T17:57:14.147Z,35.31
2019-04-25T17:59:43.459Z,35.28
2019-04-25T18:02:12.955Z,35.66
2019-04-25T18:04:42.547Z,35.89
2019-04-25T18:07:11.739Z,36.04
2019-04-25T18:09:40.924Z,36.16
2019-04-25T18:12:10.035Z,36.61
2019-04-25T18:14:39.151Z,36.28
2019-04-25T18:17:08.362Z,35.98
2019-04-25T18:19:56.543Z,36.11
2019-04-25T18:22:47.425Z,36.28
2019-04-25T18:25:26.075Z,36.80
2019-04-25T18:28:14.189Z,36.35
2019-04-25T18:30:45.502Z,35.83
2019-04-25T18:33:39.680Z,36.59
2019-04-25T18:36:35.043Z,36.55
2019-04-25T18:39:22.329Z,35.51
2019-04-25T18:41:59.627Z,35.01
2019-04-25T18:44:28.800Z,34.42
2019-04-25T18:46:58.012Z,34.37
2019-04-25T18:49:27.211Z,34.53
2019-04-25T18:51:58.322Z,35.30
2019-04-25T18:54:47.415Z,36.96
2019-04-25T18:57:33.809Z,38.15
2019-04-25T19:00:04.906Z,38.89
2019-04-25T19:02:49.161Z,39.08
2019-04-25T19:05:41.039Z,39.14
2019-04-25T19:08:10.196Z,39.43
2019-04-25T19:10:39.644Z,39.69
2019-04-25T19:13:12.771Z,39.91
2019-04-25T19:15:40.331Z,39.94
2019-04-25T19:18:10.236Z,40.02
2019-04-25T19:20:40.013Z,40.20
2019-04-25T19:23:09.540Z,40.39
2019-04-25T19:25:40.142Z,40.57
2019-04-25T19:28:09.577Z,40.84
2019-04-25T19:30:39.748Z,41.28
2019-04-25T19:33:09.152Z,41.09
2019-04-25T19:35:39.518Z,41.02
2019-04-25T19:38:09.396Z,41.52
2019-04-25T19:40:46.478Z,41.30
2019-04-25T19:43:23.597Z,41.43
2019-04-25T19:45:52.707Z,41.53
2019-04-25T19:48:21.864Z,42.01
2019-04-25T19:50:51.004Z,42.00
2019-04-25T19:53:20.130Z,42.53
2019-04-25T19:55:49.710Z,42.96
2019-04-25T19:58:18.969Z,43.33
2019-04-25T20:00:48.702Z,43.13
2019-04-25T20:03:22.822Z,43.10
2019-04-25T20:06:17.024Z,43.34
2019-04-25T20:08:52.853Z,43.86
2019-04-25T20:11:38.815Z,44.40
2019-04-25T20:14:07.926Z,44.83
2019-04-25T20:16:44.907Z,45.50
2019-04-25T20:19:15.040Z,45.20
2019-04-25T20:21:44.592Z,45.27
2019-04-25T20:24:14.666Z,45.60
2019-04-25T20:26:44.888Z,45.78
2019-04-25T20:29:14.136Z,45.93
2019-04-25T20:31:45.173Z,46.34
2019-04-25T20:34:14.200Z,46.46
2019-04-25T20:36:43.372Z,46.82
2019-04-25T20:39:12.640Z,47.11
2019-04-25T20:41:41.784Z,47.48
2019-04-25T20:44:10.926Z,47.75
2019-04-25T20:46:40.052Z,47.88
2019-04-25T20:49:09.179Z,48.16
2019-04-25T20:51:38.354Z,48.31
2019-04-25T20:54:07.838Z,48.74
2019-04-25T20:56:37.028Z,48.54
2019-04-25T20:59:06.160Z,49.04
2019-04-25T21:01:35.290Z,48.99
2019-04-25T21:04:12.951Z,48.61
2019-04-25T21:06:37.938Z,47.99
2019-04-25T21:09:07.824Z,47.59
2019-04-25T21:11:37.001Z,46.59
2019-04-25T21:14:23.819Z,44.01
2019-04-25T21:16:59.771Z,42.97
2019-04-25T21:19:31.526Z,40.39
2019-04-25T21:22:01.051Z,40.32
2019-04-25T21:24:30.371Z,39.98
2019-04-25T21:26:59.533Z,40.95
2019-04-25T21:29:28.717Z,41.23
2019-04-25T21:31:58.844Z,42.20
2019-04-25T21:34:29.634Z,42.38
2019-04-25T21:36:59.772Z,42.65
2019-04-25T21:39:42.820Z,43.22
2019-04-25T21:42:31.994Z,43.12
2019-04-25T21:45:02.463Z,43.49
2019-04-25T21:47:31.792Z,43.63
2019-04-25T21:50:03.039Z,43.66
2019-04-25T21:52:32.456Z,44.05
2019-04-25T21:55:01.890Z,44.19
2019-04-25T21:57:31.295Z,44.23
2019-04-25T22:00:07.472Z,44.39
2019-04-25T22:02:32.031Z,44.72
2019-04-25T22:05:01.317Z,44.42
2019-04-25T22:07:31.820Z,44.65
2019-04-25T22:10:02.015Z,44.86
2019-04-25T22:12:31.134Z,45.11
2019-04-25T22:15:01.420Z,45.36
2019-04-25T22:17:30.709Z,45.25
2019-04-25T22:20:00.215Z,45.47
2019-04-25T22:22:29.529Z,45.48
2019-04-25T22:24:58.726Z,45.57
2019-04-25T22:27:32.397Z,45.93
2019-04-25T22:30:01.619Z,45.99
2019-04-25T22:32:44.319Z,45.93
2019-04-25T22:35:32.411Z,46.15
2019-04-25T22:38:02.881Z,46.25
2019-04-25T22:40:32.350Z,46.47
2019-04-25T22:43:01.715Z,46.45
2019-04-25T22:45:30.929Z,46.53
2019-04-25T22:48:00.537Z,46.74
2019-04-25T22:50:31.219Z,46.89
2019-04-25T22:53:01.290Z,47.23
2019-04-25T22:55:31.577Z,47.12
2019-04-25T22:58:01.252Z,47.05
2019-04-25T23:00:35.859Z,47.49
2019-04-25T23:03:10.068Z,47.50
2019-04-25T23:05:49.586Z,47.46
2019-04-25T23:08:18.913Z,47.65
2019-04-25T23:10:48.290Z,47.99
2019-04-25T23:13:17.423Z,48.00
2019-04-25T23:15:46.644Z,48.09
2019-04-25T23:18:16.056Z,48.09
2019-04-25T23:20:45.167Z,47.98
2019-04-25T23:23:14.765Z,48.04
2019-04-25T23:26:14.671Z,48.09
2019-04-25T23:28:44.755Z,48.02
2019-04-25T23:31:24.043Z,48.11
2019-04-25T23:33:53.443Z,48.10
2019-04-25T23:36:22.648Z,48.22
2019-04-25T23:38:51.789Z,48.85
2019-04-25T23:41:21.207Z,48.79
2019-04-25T23:43:50.339Z,48.86
2019-04-25T23:46:19.464Z,49.02
2019-04-25T23:48:48.620Z,49.13
2019-04-25T23:51:17.723Z,49.12
2019-04-25T23:53:46.925Z,49.31
2019-04-25T23:56:16.064Z,49.62
2019-04-25T23:58:45.744Z,50.09
